Time;durP1;ratioP1;P1;durP2;ratioP2;P2;SDS_P1;SDS_P2;PMS_P1;PMS_P2;Temp;Humidity;BMP_temperature;BMP_pressure;BME280_temperature;BME280_humidity;BME280_pressure;Samples;Min_cycle;Max_cycle;Signal;HPM_P1;HPM_P2
2021/10/20 00:00:52;;;;;;;;;;;;;;;;;;;;;
2021/10/20 00:04:03;;;;;;;12.00;9.10;;;;;;;22.52;50.39;102213.93;109818;1248;60189;-86
2021/10/20 00:07:19;;;;;;;;;;;;;;;;;;;;;
2021/10/20 00:11:14;;;;;;;8.70;7.20;;;;;;;22.52;50.33;102203.56;109903;1246;72406;-82
2021/10/20 00:14:47;;;;;;;9.50;7.00;;;;;;;22.52;50.42;102203.52;109969;1245;61295;-81
2021/10/20 00:17:56;;;;;;;9.30;7.50;;;;;;;22.53;50.31;102196.48;109812;1246;60351;-87
2021/10/20 00:25:14;;;;;;;11.00;8.60;;;;;;;22.53;50.46;102185.33;110129;1244;71983;-84
2021/10/20 00:32:08;;;;;;;;;;;;;;;;;;;;;
2021/10/20 00:35:30;;;;;;;10.00;8.00;;;;;;;22.53;50.36;102176.92;109645;1247;72750;-87
2021/10/20 00:39:03;;;;;;;9.90;4.50;;;;;;;22.53;50.27;102167.96;109797;1247;74049;-87
2021/10/20 00:42:12;;;;;;;;;;;;;;;;;;;;;
2021/10/20 00:45:29;;;;;;;;;;;;;;;;;;;;;
2021/10/20 00:48:57;;;;;;;;;;;;;;;;;;;;;
2021/10/20 00:52:10;;;;;;;;;;;;;;;;;;;;;
2021/10/20 00:55:41;;;;;;;12.10;9.10;;;;;;;22.54;50.15;102161.98;109894;1247;60335;-79
2021/10/20 00:58:31;;;;;;;13.90;9.00;;;;;;;22.55;50.12;102156.73;109937;1247;61127;-88
2021/10/20 01:02:42;;;;;;;11.80;9.10;;;;;;;22.55;50.19;102154.41;110139;1241;74293;-88
2021/10/20 01:05:36;;;;;;;10.10;8.80;;;;;;;22.54;50.05;102154.61;110296;1239;73194;-90
2021/10/20 01:12:15;;;;;;;;;;;;;;;;;;;;;
2021/10/20 01:16:30;;;;;;;13.10;9.40;;;;;;;22.56;50.28;102145.92;111102;1234;71438;-88
2021/10/20 01:20:05;;;;;;;9.90;8.60;;;;;;;22.56;50.23;102149.33;110805;1235;72641;-84
2021/10/20 01:22:58;;;;;;;;;;;;;;;;;;;;;
2021/10/20 01:26:19;;;;;;;;;;;;;;;;;;;;;
2021/10/20 01:30:05;;;;;;;;;;;;;;;;;;;;;
2021/10/20 01:33:31;;;;;;;;;;;;;;;;;;;;;
2021/10/20 01:37:06;;;;;;;;;;;;;;;;;;;;;
2021/10/20 01:40:26;;;;;;;;;;;;;;;;;;;;;
2021/10/20 01:44:19;;;;;;;;;;;;;;;;;;;;;
2021/10/20 01:47:16;;;;;;;;;;;;;;;;;;;;;
2021/10/20 01:50:43;;;;;;;;;;;;;;;;;;;;;
2021/10/20 01:53:53;;;;;;;;;;;;;;;;;;;;;
2021/10/20 01:57:11;;;;;;;13.20;9.10;;;;;;;22.60;50.12;102141.02;110505;1240;72902;-85
2021/10/20 02:00:40;;;;;;;;;;;;;;;;;;;;;
2021/10/20 02:04:29;;;;;;;12.40;9.70;;;;;;;22.60;50.06;102147.85;110614;1240;61508;-83
2021/10/20 02:07:55;;;;;;;11.40;9.20;;;;;;;22.60;50.27;102141.17;110764;1236;59985;-85
2021/10/20 02:15:15;;;;;;;12.60;9.90;;;;;;;22.61;50.07;102143.84;110592;1238;71638;-87
2021/10/20 02:22:05;;;;;;;11.80;9.50;;;;;;;22.62;50.18;102133.39;110488;1241;61723;-84
2021/10/20 02:25:39;;;;;;;12.10;9.70;;;;;;;22.62;50.04;102131.06;110609;1238;71414;-78
2021/10/20 02:29:06;;;;;;;;;;;;;;;;;;;;;
2021/10/20 02:36:13;;;;;;;;;;;;;;;;;;;;;
2021/10/20 02:39:49;;;;;;;;;;;;;;;;;;;;;
2021/10/20 02:43:10;;;;;;;10.20;8.40;;;;;;;22.64;49.98;102128.43;110252;1243;72101;-82
2021/10/20 02:46:36;;;;;;;;;;;;;;;;;;;;;
2021/10/20 02:49:55;;;;;;;;;;;;;;;;;;;;;
2021/10/20 02:53:41;;;;;;;;;;;;;;;;;;;;;
2021/10/20 02:57:14;;;;;;;13.00;9.40;;;;;;;22.64;50.14;102128.75;110603;1238;72969;-89
2021/10/20 03:00:18;;;;;;;;;;;;;;;;;;;;;
2021/10/20 03:03:48;;;;;;;;;;;;;;;;;;;;;
2021/10/20 03:07:34;;;;;;;;;;;;;;;;;;;;;
2021/10/20 03:11:19;;;;;;;;;;;;;;;;;;;;;
2021/10/20 03:15:21;;;;;;;12.20;9.30;;;;;;;22.65;50.03;102134.63;110980;1235;59408;-81
2021/10/20 03:18:22;;;;;;;;;;;;;;;;;;;;;
2021/10/20 03:21:47;;;;;;;;;;;;;;;;;;;;;
2021/10/20 03:28:37;;;;;;;14.00;10.60;;;;;;;22.67;49.88;102129.34;110399;1241;59475;-84
2021/10/20 03:32:13;;;;;;;;;;;;;;;;;;;;;
2021/10/20 03:35:32;;;;;;;10.90;9.40;;;;;;;22.67;49.87;102125.54;110388;1241;72705;-88
2021/10/20 03:39:01;;;;;;;;;;;;;;;;;;;;;
2021/10/20 03:42:12;;;;;;;;;;;;;;;;;;;;;
2021/10/20 03:45:28;;;;;;;;;;;;;;;;;;;;;
2021/10/20 03:48:36;;;;;;;10.60;8.80;;;;;;;22.68;49.89;102119.21;110278;1243;73382;-82
2021/10/20 03:52:08;;;;;;;14.60;10.00;;;;;;;22.68;49.82;102121.38;110217;1241;74402;-90
2021/10/20 03:55:36;;;;;;;;;;;;;;;;;;;;;
2021/10/20 03:59:05;;;;;;;13.30;9.20;;;;;;;22.68;49.84;102129.96;110073;1245;59390;-91
2021/10/20 04:06:24;;;;;;;;;;;;;;;;;;;;;
2021/10/20 04:09:47;;;;;;;14.10;10.60;;;;;;;22.70;49.84;102132.73;113082;1216;73486;-84
2021/10/20 04:13:16;;;;;;;;;;;;;;;;;;;;;
2021/10/20 04:16:55;;;;;;;13.20;9.90;;;;;;;22.70;49.79;102134.15;113054;1217;60264;-85
2021/10/20 04:19:45;;;;;;;12.90;9.90;;;;;;;22.71;49.82;102135.02;113005;1217;72427;-82
2021/10/20 04:23:22;;;;;;;;;;;;;;;;;;;;;
2021/10/20 04:26:54;;;;;;;13.40;10.00;;;;;;;22.71;49.69;102135.39;112515;1225;58991;-86
2021/10/20 04:30:03;;;;;;;14.80;10.20;;;;;;;22.72;49.57;102131.03;112103;1228;61195;-83
2021/10/20 04:36:38;;;;;;;16.10;10.40;;;;;;;22.71;49.59;102130.34;111289;1233;72130;-79
2021/10/20 04:39:52;;;;;;;14.60;9.70;;;;;;;22.71;49.63;102129.23;111092;1234;60222;-83
2021/10/20 04:43:09;;;;;;;12.00;9.70;;;;;;;22.72;49.47;102132.99;110963;1234;60129;-87
2021/10/20 04:46:14;;;;;;;12.90;9.40;;;;;;;22.72;49.45;102138.00;111041;1232;71517;-85
2021/10/20 04:49:41;;;;;;;13.50;10.40;;;;;;;22.72;49.46;102133.48;110700;1237;74329;-82
2021/10/20 04:52:50;;;;;;;14.10;10.40;;;;;;;22.72;49.35;102131.89;110807;1237;61083;-82
2021/10/20 04:55:33;;;;;;;12.20;9.20;;;;;;;22.73;49.13;102134.52;110621;1237;61388;-84
2021/10/20 04:58:14;;;;;;;14.90;10.80;;;;;;;22.73;49.25;102129.67;110474;1237;73335;-82
2021/10/20 05:01:37;;;;;;;15.70;9.80;;;;;;;22.73;49.28;102132.54;110492;1237;73871;-83
2021/10/20 05:04:51;;;;;;;;;;;;;;;;;;;;;
2021/10/20 05:08:18;;;;;;;13.30;9.90;;;;;;;22.75;49.12;102137.29;110775;1233;59711;-83
2021/10/20 05:11:19;;;;;;;15.30;9.60;;;;;;;22.76;49.13;102137.42;110861;1235;73580;-80
2021/10/20 05:14:25;;;;;;;13.30;9.70;;;;;;;22.77;49.03;102139.86;110795;1233;72997;-82
2021/10/20 05:17:11;;;;;;;17.50;10.80;;;;;;;22.77;48.98;102139.50;110750;1233;60009;-80
2021/10/20 05:20:17;;;;;;;15.60;10.50;;;;;;;22.78;48.84;102142.54;110477;1236;59364;-80
2021/10/20 05:23:20;;;;;;;13.40;10.00;;;;;;;22.79;48.76;102144.81;110491;1236;73433;-80
2021/10/20 05:26:26;;;;;;;15.20;10.20;;;;;;;22.80;48.80;102144.40;110264;1238;71816;-83
2021/10/20 05:29:21;;;;;;;13.90;9.90;;;;;;;22.81;48.78;102148.30;110381;1236;60312;-80
2021/10/20 05:32:01;;;;;;;;;;;;;;;;;;;;;
2021/10/20 05:35:19;;;;;;;;;;;;;;;;;;;;;
2021/10/20 05:38:05;;;;;;;12.50;9.50;;;;;;;22.82;48.60;102156.98;110922;1235;72868;-82
2021/10/20 05:40:59;;;;;;;13.20;9.70;;;;;;;22.84;48.36;102157.63;110959;1233;60237;-81
2021/10/20 05:43:57;;;;;;;13.10;9.60;;;;;;;22.84;48.31;102157.42;110909;1234;59942;-78
2021/10/20 05:47:24;;;;;;;15.30;10.20;;;;;;;22.84;48.06;102156.70;110908;1232;72743;-79
2021/10/20 05:50:17;;;;;;;13.70;9.90;;;;;;;22.84;48.31;102157.42;110963;1230;72952;-79
2021/10/20 05:53:29;;;;;;;13.70;9.70;;;;;;;22.84;48.19;102165.48;111309;1230;62071;-80
2021/10/20 05:56:16;;;;;;;;;;;;;;;22.85;48.09;102164.56;111640;1228;59968;-82
2021/10/20 05:59:06;;;;;;;;;;;;;;;;;;;;;
2021/10/20 06:01:52;;;;;;;13.40;9.50;;;;;;;22.85;48.33;102167.98;111982;1225;72993;-80
2021/10/20 06:04:50;;;;;;;14.80;9.30;;;;;;;22.86;48.32;102171.66;112150;1223;60452;-80
2021/10/20 06:07:59;;;;;;;;;;;;;;;;;;;;;
2021/10/20 06:11:23;;;;;;;12.70;8.90;;;;;;;22.86;48.37;102176.52;112667;1219;73081;-81
2021/10/20 06:14:17;;;;;;;13.10;9.70;;;;;;;22.87;48.48;102178.40;112763;1219;73744;-80
2021/10/20 06:17:19;;;;;;;12.80;9.30;;;;;;;22.87;48.63;102179.69;112393;1223;60071;-83
2021/10/20 06:20:12;;;;;;;13.00;9.30;;;;;;;22.88;48.62;102185.70;112302;1222;60177;-79
2021/10/20 06:23:38;;;;;;;13.00;10.10;;;;;;;22.88;48.61;102181.61;112322;1222;73875;-80
2021/10/20 06:26:33;;;;;;;12.00;9.10;;;;;;;22.88;48.60;102182.34;112363;1224;74001;-85
2021/10/20 06:29:21;;;;;;;13.60;9.60;;;;;;;22.88;48.82;102183.73;112372;1224;60374;-80
2021/10/20 06:32:20;;;;;;;12.60;9.10;;;;;;;22.88;48.76;102182.83;112630;1221;61259;-80
2021/10/20 06:35:13;;;;;;;14.60;9.60;;;;;;;22.88;48.88;102182.30;112815;1216;72235;-84
2021/10/20 06:38:20;;;;;;;12.70;9.50;;;;;;;22.88;48.95;102179.46;112828;1216;74055;-81
2021/10/20 06:41:15;;;;;;;13.00;9.30;;;;;;;22.88;48.98;102182.86;112627;1219;60035;-81
2021/10/20 06:44:07;;;;;;;13.30;9.30;;;;;;;22.88;48.92;102183.02;112611;1219;60297;-83
2021/10/20 06:47:16;;;;;;;12.20;8.80;;;;;;;22.88;49.02;102183.04;112411;1222;73810;-84
2021/10/20 06:50:25;;;;;;;12.00;9.00;;;;;;;22.89;49.06;102184.08;111717;1227;73000;-83
2021/10/20 06:53:23;;;;;;;13.40;9.50;;;;;;;22.88;49.01;102183.55;111609;1230;60271;-84
2021/10/20 06:59:20;;;;;;;11.90;8.80;;;;;;;22.89;49.10;102188.71;111187;1232;73785;-81
2021/10/20 07:02:44;;;;;;;11.20;8.40;;;;;;;22.89;48.99;102183.53;111029;1232;72980;-79
2021/10/20 07:05:34;;;;;;;13.80;8.80;;;;;;;22.89;49.23;102187.27;111091;1231;60192;-83
2021/10/20 07:08:40;;;;;;;11.90;8.70;;;;;;;22.90;48.86;102183.44;111084;1231;61370;-83
2021/10/20 07:11:57;;;;;;;12.80;9.50;;;;;;;22.89;48.78;102182.27;110701;1235;72482;-81
2021/10/20 07:14:49;;;;;;;19.40;12.90;;;;;;;22.83;48.80;102177.96;110674;1236;73005;-86
2021/10/20 07:18:02;;;;;;;;;;;;;;;;;;;;;
2021/10/20 07:21:08;;;;;;;16.40;11.90;;;;;;;22.73;48.91;102182.45;110279;1238;59503;-80
2021/10/20 07:24:24;;;;;;;;;;;;;;;;;;;;;
2021/10/20 07:27:22;;;;;;;15.10;11.40;;;;;;;22.66;48.70;102186.45;110724;1235;73112;-82
2021/10/20 07:30:22;;;;;;;15.90;12.10;;;;;;;22.65;48.45;102186.51;110769;1233;60244;-82
2021/10/20 07:33:31;;;;;;;13.20;11.10;;;;;;;22.64;48.25;102186.23;110897;1235;59502;-81
2021/10/20 07:36:22;;;;;;;17.00;11.60;;;;;;;22.63;47.93;102183.55;110886;1233;72784;-77
2021/10/20 07:39:47;;;;;;;;;;;;;;;;;;;;;
2021/10/20 07:42:54;;;;;;;17.20;12.60;;;;;;;22.60;47.88;102185.14;111008;1235;59943;-83
2021/10/20 07:45:57;;;;;;;;;;;;;;;;;;;;;
2021/10/20 07:49:04;;;;;;;16.90;11.70;;;;;;;22.59;47.83;102178.58;110649;1236;72301;-83
2021/10/20 07:51:57;;;;;;;15.30;12.40;;;;;;;22.58;47.59;102172.34;110533;1236;73023;-80
2021/10/20 07:55:10;;;;;;;18.40;12.60;;;;;;;22.58;47.54;102176.11;110767;1235;60197;-82
2021/10/20 07:58:02;;;;;;;19.50;12.20;;;;;;;22.58;47.46;102180.23;110936;1233;60492;-81
2021/10/20 08:00:51;;;;;;;20.00;13.40;;;;;;;22.58;47.58;102182.02;110510;1236;71391;-82
2021/10/20 08:03:38;;;;;;;17.40;13.10;;;;;;;22.58;47.39;102182.19;110443;1234;72985;-79
2021/10/20 08:06:49;;;;;;;18.40;13.10;;;;;;;22.58;47.01;102178.46;110713;1234;60093;-79
2021/10/20 08:09:51;;;;;;;20.00;13.00;;;;;;;22.57;46.99;102174.35;110493;1235;60151;-79
2021/10/20 08:12:59;;;;;;;19.70;13.40;;;;;;;22.58;46.94;102176.83;110851;1234;73343;-81
2021/10/20 08:15:59;;;;;;;20.80;13.30;;;;;;;22.57;46.68;102173.10;110725;1235;73566;-80
2021/10/20 08:18:51;;;;;;;21.10;13.90;;;;;;;22.58;46.52;102176.48;110747;1235;60251;-80
2021/10/20 08:22:07;;;;;;;16.50;12.70;;;;;;;22.56;46.51;102178.36;110714;1234;60392;-80
2021/10/20 08:25:28;;;;;;;;;;;;;;;;;;;;;
2021/10/20 08:28:15;;;;;;;17.60;11.90;;;;;;;22.53;46.00;102175.46;110700;1238;72889;-82
2021/10/20 08:31:10;;;;;;;;;;;;;;;;;;;;;
2021/10/20 08:34:17;;;;;;;;;;;;;;;;;;;;;
2021/10/20 08:37:12;;;;;;;17.40;12.70;;;;;;;22.49;45.50;102174.48;110533;1236;72028;-83
2021/10/20 08:39:59;;;;;;;17.80;13.50;;;;;;;22.48;45.51;102170.77;111028;1233;72719;-85
2021/10/20 08:43:09;;;;;;;17.40;13.20;;;;;;;22.46;45.23;102164.04;111083;1233;61781;-79
2021/10/20 08:46:05;;;;;;;18.10;12.40;;;;;;;22.46;45.14;102166.90;111002;1233;60994;-80
2021/10/20 08:49:05;;;;;;;17.90;13.00;;;;;;;22.45;45.10;102167.33;111069;1233;72810;-78
2021/10/20 08:52:10;;;;;;;19.10;12.70;;;;;;;22.44;44.86;102163.80;111072;1232;74113;-86
2021/10/20 08:55:12;;;;;;;;;;;;;;;;;;;;;
2021/10/20 08:58:06;;;;;;;16.20;11.70;;;;;;;22.45;44.64;102159.64;111229;1232;61422;-80
2021/10/20 09:01:05;;;;;;;14.40;11.60;;;;;;;22.46;44.35;102160.30;111749;1227;73269;-80
2021/10/20 09:04:35;;;;;;;18.50;11.40;;;;;;;22.46;44.25;102159.59;112381;1224;72947;-86
2021/10/20 09:08:00;;;;;;;15.60;11.90;;;;;;;22.45;44.17;102158.16;112739;1221;59831;-79
2021/10/20 09:11:29;;;;;;;14.40;10.20;;;;;;;22.45;43.95;102153.17;112875;1217;59325;-83
2021/10/20 09:14:10;;;;;;;;;;;;;;;;;;;;;
2021/10/20 09:17:37;;;;;;;13.90;11.10;;;;;;;22.47;43.77;102150.00;112575;1219;75108;-79
2021/10/20 09:20:51;;;;;;;15.40;11.30;;;;;;;22.47;43.76;102145.33;112687;1219;60425;-79
2021/10/20 09:23:48;;;;;;;;;;;;;;;;;;;;;
2021/10/20 09:27:16;;;;;;;;;;;;;;;;;;;;;
2021/10/20 09:30:08;;;;;;;;;;;;;;;22.48;43.27;102140.26;112035;1225;73656;-80
2021/10/20 09:33:38;;;;;;;16.10;10.50;;;;;;;22.46;43.17;102136.96;111871;1228;60168;-79
2021/10/20 09:36:39;;;;;;;14.90;10.10;;;;;;;22.47;43.27;102138.35;111190;1225;61431;-80
2021/10/20 09:39:37;;;;;;;13.40;10.10;;;;;;;22.47;42.97;102132.05;111016;1235;71406;-81
2021/10/20 09:42:48;;;;;;;13.90;10.40;;;;;;;22.50;42.87;102132.42;110538;1238;74754;-80
2021/10/20 09:46:25;;;;;;;;;;;;;;;;;;;;;
2021/10/20 09:49:33;;;;;;;;;;;;;;;;;;;;;
2021/10/20 09:52:25;;;;;;;;;;;;;;;;;;;;;
2021/10/20 09:55:06;;;;;;;;;;;;;;;;;;;;;
2021/10/20 09:57:38;;;;;;;16.20;10.50;;;;;;;22.58;42.59;102118.13;110987;1233;60252;-81
2021/10/20 10:00:29;;;;;;;14.40;10.30;;;;;;;22.59;42.63;102116.45;110855;1232;60149;-81
2021/10/20 10:03:15;;;;;;;12.20;9.90;;;;;;;22.61;42.48;102111.89;111217;1227;72584;-81
2021/10/20 10:06:38;;;;;;;14.70;10.10;;;;;;;22.64;42.52;102111.01;111511;1227;74870;-80
2021/10/20 10:09:24;;;;;;;14.50;9.30;;;;;;;22.67;42.62;102105.45;111324;1227;60209;-80
2021/10/20 10:12:30;;;;;;;12.20;9.60;;;;;;;22.70;42.56;102105.60;111797;1227;60976;-82
2021/10/20 10:15:53;;;;;;;;;;;;;;;;;;;;;
2021/10/20 10:19:01;;;;;;;14.70;9.30;;;;;;;22.77;42.34;102094.45;112012;1225;73585;-80
2021/10/20 10:22:20;;;;;;;13.70;9.40;;;;;;;22.80;42.29;102097.15;112127;1224;60200;-85
2021/10/20 10:25:07;;;;;;;15.40;9.60;;;;;;;22.83;42.25;102094.33;112173;1222;61183;-79
2021/10/20 10:28:35;;;;;;;14.20;8.60;;;;;;;22.85;42.19;102095.44;112506;1220;72539;-81
2021/10/20 10:31:29;;;;;;;;;;;;;;;;;;;;;
2021/10/20 10:34:39;;;;;;;13.00;9.10;;;;;;;22.90;42.25;102096.05;112662;1220;60300;-83
2021/10/20 10:37:30;;;;;;;11.30;8.60;;;;;;;22.91;42.24;102091.10;112602;1222;60102;-80
2021/10/20 10:40:28;;;;;;;11.80;8.50;;;;;;;22.93;42.34;102082.77;112194;1224;72470;-80
2021/10/20 10:43:14;;;;;;;10.90;8.50;;;;;;;22.95;42.15;102077.96;111532;1227;74991;-80
2021/10/20 10:46:29;;;;;;;11.80;8.60;;;;;;;22.97;42.32;102075.70;111718;1229;61047;-81
2021/10/20 10:49:23;;;;;;;11.50;8.70;;;;;;;22.97;42.20;102065.10;111679;1228;60301;-80
2021/10/20 10:52:24;;;;;;;;;;;;;;;;;;;;;
2021/10/20 10:55:38;;;;;;;11.20;8.40;;;;;;;22.99;42.29;102050.27;111909;1225;74699;-85
2021/10/20 10:58:47;;;;;;;12.90;8.50;;;;;;;22.99;42.35;102043.61;111925;1228;60502;-85
2021/10/20 11:02:27;;;;;;;11.10;8.80;;;;;;;23.00;42.20;102043.42;111640;1228;61540;-81
2021/10/20 11:05:20;;;;;;;9.20;7.40;;;;;;;23.00;42.45;102039.26;111111;1230;73036;-79
2021/10/20 11:08:20;;;;;;;;;;;;;;;;;;;;;
2021/10/20 11:11:29;;;;;;;;;;;;;;;;;;;;;
2021/10/20 11:14:27;;;;;;;11.40;8.70;;;;;;;23.06;43.38;102019.31;111016;1233;61299;-79
2021/10/20 11:17:23;;;;;;;11.30;8.10;;;;;;;23.08;43.35;102016.71;110584;1235;72454;-78
2021/10/20 11:20:23;;;;;;;13.80;8.10;;;;;;;23.08;43.30;102011.64;111005;1232;74747;-79
2021/10/20 11:23:14;;;;;;;11.60;8.40;;;;;;;23.10;43.04;102015.50;111422;1229;61527;-80
2021/10/20 11:25:45;;;;;;;9.90;7.70;;;;;;;23.11;43.14;102002.89;111452;1231;60251;-81
2021/10/20 11:29:03;;;;;;;12.80;8.10;;;;;;;23.12;43.05;101999.78;111804;1225;72339;-79
2021/10/20 11:32:08;;;;;;;10.60;7.80;;;;;;;23.12;43.06;101999.08;111931;1225;72925;-83
2021/10/20 11:35:18;;;;;;;10.80;8.30;;;;;;;23.12;42.95;101995.45;111485;1230;60165;-83
2021/10/20 11:38:35;;;;;;;9.10;7.20;;;;;;;23.12;43.04;101995.11;111049;1233;60301;-83
2021/10/20 11:41:28;;;;;;;9.00;7.50;;;;;;;23.12;42.93;101990.98;110788;1235;73429;-80
2021/10/20 11:44:24;;;;;;;10.30;8.00;;;;;;;23.12;42.93;101983.26;110993;1234;73623;-84
2021/10/20 11:47:22;;;;;;;;;;;;;;;;;;;;;
2021/10/20 11:50:14;;;;;;;9.70;7.40;;;;;;;23.12;43.01;101973.20;111242;1232;60510;-86
2021/10/20 11:53:28;;;;;;;10.10;7.80;;;;;;;23.12;43.19;101966.73;111246;1232;72606;-84
2021/10/20 11:56:22;;;;;;;11.10;7.70;;;;;;;23.12;43.28;101968.20;110959;1232;74717;-84
2021/10/20 11:59:40;;;;;;;10.40;7.80;;;;;;;23.12;43.35;101961.34;111260;1231;60973;-77
2021/10/20 12:02:18;;;;;;;11.10;7.80;;;;;;;23.11;43.59;101961.55;111313;1231;61550;-81
2021/10/20 12:05:21;;;;;;;9.00;6.70;;;;;;;23.12;43.68;101958.83;111363;1231;72034;-84
2021/10/20 12:08:20;;;;;;;;;;;;;;;;;;;;;
2021/10/20 12:11:44;;;;;;;10.10;7.30;;;;;;;23.13;43.73;101951.80;111989;1225;61095;-80
2021/10/20 12:15:06;;;;;;;10.10;7.40;;;;;;;23.13;43.75;101944.41;111735;1225;60173;-85
2021/10/20 12:18:25;;;;;;;9.60;6.70;;;;;;;23.14;43.74;101944.20;112009;1224;71798;-84
2021/10/20 12:21:25;;;;;;;9.30;6.90;;;;;;;23.14;43.75;101940.59;111433;1228;73552;-80
2021/10/20 12:24:18;;;;;;;;;;;;;;;;;;;;;
2021/10/20 12:27:22;;;;;;;;;;;;;;;;;;;;;
2021/10/20 12:30:48;;;;;;;9.70;6.80;;;;;;;23.15;43.96;101936.05;111218;1232;73677;-82
2021/10/20 12:33:53;;;;;;;9.20;6.70;;;;;;;23.15;43.99;101928.11;111133;1231;73670;-81
2021/10/20 12:37:02;;;;;;;9.10;6.90;;;;;;;23.16;43.96;101927.90;111075;1234;61006;-80
2021/10/20 12:39:49;;;;;;;8.40;6.90;;;;;;;23.16;44.02;101922.11;111150;1232;61428;-80
2021/10/20 12:42:59;;;;;;;12.40;7.30;;;;;;;23.17;44.11;101921.17;111453;1231;72533;-81
2021/10/20 12:46:29;;;;;;;10.10;6.90;;;;;;;23.17;44.02;101918.11;111053;1234;72414;-85
2021/10/20 12:49:36;;;;;;;8.90;7.30;;;;;;;23.17;43.98;101917.05;110915;1237;60295;-84
2021/10/20 12:52:47;;;;;;;8.80;7.10;;;;;;;23.18;44.00;101917.35;110886;1234;61613;-85
2021/10/20 12:55:51;;;;;;;;;;;;;;;;;;;;;
2021/10/20 12:59:02;;;;;;;10.40;6.60;;;;;;;23.18;44.15;101908.70;110953;1235;73797;-85
2021/10/20 13:02:25;;;;;;;;;;;;;;;;;;;;;
2021/10/20 13:05:45;;;;;;;8.40;6.80;;;;;;;23.20;44.29;101902.89;110938;1235;60169;-78
2021/10/20 13:08:42;;;;;;;;;;;;;;;;;;;;;
2021/10/20 13:12:04;;;;;;;8.30;6.50;;;;;;;23.21;44.22;101895.45;111102;1234;74771;-85
2021/10/20 13:15:11;;;;;;;;;;;;;;;23.21;44.16;101899.20;110708;1238;61012;-84
2021/10/20 13:18:04;;;;;;;10.40;7.00;;;;;;;23.19;44.39;101896.10;110580;1240;60516;-82
2021/10/20 13:21:05;;;;;;;;;;;;;;;;;;;;;
2021/10/20 13:24:31;;;;;;;7.70;6.40;;;;;;;23.21;44.49;101888.10;110105;1244;74936;-86
2021/10/20 13:27:37;;;;;;;;;;;;;;;;;;;;;
2021/10/20 13:30:58;;;;;;;;;;;;;;;;;;;;;
2021/10/20 13:34:07;;;;;;;9.40;7.00;;;;;;;23.21;44.71;101881.59;110169;1242;74000;-81
2021/10/20 13:37:31;;;;;;;8.30;6.10;;;;;;;23.22;44.57;101875.08;110156;1241;75040;-84
2021/10/20 13:40:41;;;;;;;8.30;6.80;;;;;;;23.22;44.68;101876.33;110216;1244;60401;-85
2021/10/20 13:43:38;;;;;;;9.00;7.30;;;;;;;23.23;44.64;101878.60;110269;1244;60365;-90
2021/10/20 13:47:00;;;;;;;9.20;7.00;;;;;;;23.23;44.60;101877.50;110218;1243;72991;-84
2021/10/20 13:50:16;;;;;;;8.90;6.60;;;;;;;23.25;44.74;101878.69;110232;1243;73621;-84
2021/10/20 13:53:43;;;;;;;8.50;6.90;;;;;;;23.25;44.55;101877.22;110411;1241;60250;-82
2021/10/20 13:56:31;;;;;;;;;;;;;;;;;;;;;
2021/10/20 13:59:51;;;;;;;8.30;6.60;;;;;;;23.26;44.68;101871.40;110904;1235;72631;-85
2021/10/20 14:02:37;;;;;;;8.30;6.50;;;;;;;23.27;44.84;101873.13;110833;1235;72471;-88
2021/10/20 14:05:43;;;;;;;8.00;6.40;;;;;;;23.27;44.67;101875.10;110724;1237;61513;-78
2021/10/20 14:09:01;;;;;;;10.10;6.80;;;;;;;23.28;44.66;101873.98;111079;1233;60346;-85
2021/10/20 14:11:45;;;;;;;10.40;6.90;;;;;;;23.29;44.88;101874.66;110946;1233;72457;-86
2021/10/20 14:14:51;;;;;;;8.60;6.20;;;;;;;23.29;44.90;101869.80;111451;1230;74414;-86
2021/10/20 14:17:49;;;;;;;7.60;6.60;;;;;;;23.29;44.79;101868.33;111473;1231;62168;-84
2021/10/20 14:20:37;;;;;;;7.90;6.60;;;;;;;23.30;44.96;101870.45;111312;1232;60853;-84
2021/10/20 14:23:52;;;;;;;;;;;;;;;23.31;44.79;101869.16;111374;1231;72477;-88
2021/10/20 14:26:50;;;;;;;7.60;6.30;;;;;;;23.29;44.99;101864.21;111278;1233;74513;-86
2021/10/20 14:29:47;;;;;;;8.70;6.40;;;;;;;23.30;45.06;101864.36;111286;1232;61172;-86
2021/10/20 14:32:53;;;;;;;7.20;6.10;;;;;;;23.31;44.99;101863.77;111252;1232;61322;-83
2021/10/20 14:36:09;;;;;;;;;;;;;;;;;;;;;
2021/10/20 14:39:30;;;;;;;9.80;6.70;;;;;;;23.31;44.98;101857.63;110728;1235;73761;-82
2021/10/20 14:42:17;;;;;;;;;;;;;;;;;;;;;
2021/10/20 14:45:05;;;;;;;7.10;5.70;;;;;;;23.32;44.97;101855.40;111414;1231;61309;-82
2021/10/20 14:48:14;;;;;;;;;;;;;;;;;;;;;
2021/10/20 14:51:17;;;;;;;7.80;6.40;;;;;;;23.33;45.07;101847.60;111628;1228;73281;-81
2021/10/20 14:54:21;;;;;;;;;;;;;;;;;;;;;
2021/10/20 15:00:34;;;;;;;9.00;6.00;;;;;;;23.35;45.14;101842.11;111152;1233;71343;-82
2021/10/20 15:03:20;;;;;;;8.50;6.30;;;;;;;23.36;45.21;101843.47;111056;1234;74011;-88
2021/10/20 15:06:11;;;;;;;7.80;6.10;;;;;;;23.36;45.14;101837.72;111324;1232;60296;-86
2021/10/20 15:09:28;;;;;;;7.50;6.40;;;;;;;23.36;45.16;101837.52;111419;1230;60168;-78
2021/10/20 15:12:24;;;;;;;8.90;5.90;;;;;;;23.37;45.16;101838.38;111632;1231;71550;-85
2021/10/20 15:15:32;;;;;;;8.30;6.30;;;;;;;23.37;45.15;101839.27;111722;1228;75076;-82
2021/10/20 15:18:53;;;;;;;7.50;6.10;;;;;;;23.37;45.16;101841.23;111724;1228;62209;-87
2021/10/20 15:21:49;;;;;;;8.00;6.00;;;;;;;23.38;45.23;101835.82;111720;1228;60282;-85
2021/10/20 15:25:16;;;;;;;7.90;6.30;;;;;;;23.38;45.20;101836.71;111274;1232;73647;-82
2021/10/20 15:28:34;;;;;;;;;;;;;;;;;;;;;
2021/10/20 15:31:43;;;;;;;9.10;6.50;;;;;;;23.38;45.08;101831.48;111328;1232;60271;-82
2021/10/20 15:34:39;;;;;;;;;;;;;;;;;;;;;
2021/10/20 15:38:00;;;;;;;;;;;;;;;;;;;;;
2021/10/20 15:41:09;;;;;;;7.70;6.30;;;;;;;23.39;45.15;101836.45;111143;1233;73685;-83
2021/10/20 15:44:26;;;;;;;;;;;;;;;;;;;;;
2021/10/20 15:47:32;;;;;;;8.30;6.20;;;;;;;23.40;45.13;101830.48;110954;1235;61316;-80
2021/10/20 15:50:18;;;;;;;8.60;6.40;;;;;;;23.39;45.09;101831.04;110937;1235;73175;-82
2021/10/20 15:53:22;;;;;;;9.00;6.50;;;;;;;23.40;45.25;101827.59;110628;1238;73599;-83
2021/10/20 15:56:27;;;;;;;;;;;;;;;;;;;;;
2021/10/20 15:59:34;;;;;;;8.40;6.40;;;;;;;23.40;45.19;101823.47;110704;1237;60413;-89
2021/10/20 16:02:28;;;;;;;10.80;6.50;;;;;;;23.40;45.18;101819.67;110770;1234;73406;-81
2021/10/20 16:05:44;;;;;;;9.00;6.60;;;;;;;23.39;45.35;101824.03;111121;1233;74895;-82
2021/10/20 16:08:55;;;;;;;;;;;;;;;;;;;;;
2021/10/20 16:11:40;;;;;;;9.60;6.40;;;;;;;23.39;45.33;101819.74;111290;1232;60235;-82
2021/10/20 16:15:06;;;;;;;9.90;6.80;;;;;;;23.40;45.22;101825.80;111460;1230;71341;-88
2021/10/20 16:17:56;;;;;;;8.40;6.50;;;;;;;23.40;45.17;101826.49;111311;1230;74041;-83
2021/10/20 16:21:14;;;;;;;9.10;6.80;;;;;;;23.40;45.34;101829.94;111537;1230;61734;-84
2021/10/20 16:24:13;;;;;;;;;;;;;;;;;;;;;
2021/10/20 16:27:05;;;;;;;9.50;7.10;;;;;;;23.39;45.33;101826.73;111878;1227;72393;-86
2021/10/20 16:30:02;;;;;;;11.30;6.70;;;;;;;23.40;45.28;101823.65;111684;1227;73660;-83
2021/10/20 16:32:54;;;;;;;10.50;7.20;;;;;;;23.40;45.33;101818.62;112252;1224;60252;-80
2021/10/20 16:35:50;;;;;;;8.90;6.70;;;;;;;23.40;45.45;101828.86;112277;1219;60197;-80
2021/10/20 16:38:30;;;;;;;8.10;6.40;;;;;;;23.40;45.40;101830.11;112590;1219;72320;-81
2021/10/20 16:41:42;;;;;;;9.40;6.80;;;;;;;23.41;45.44;101825.56;112656;1219;74679;-82
2021/10/20 16:44:30;;;;;;;9.90;7.10;;;;;;;23.41;45.40;101827.36;112758;1219;60222;-91
2021/10/20 16:47:36;;;;;;;10.40;7.10;;;;;;;23.40;45.44;101824.48;112830;1221;60482;-87
2021/10/20 16:50:23;;;;;;;9.20;7.20;;;;;;;23.41;45.41;101825.03;112450;1221;71327;-81
2021/10/20 16:53:15;;;;;;;9.10;7.10;;;;;;;23.41;45.48;101825.35;112608;1221;60131;-80
2021/10/20 16:56:01;;;;;;;9.40;7.50;;;;;;;23.41;45.50;101819.41;112580;1221;61049;-80
2021/10/20 16:59:14;;;;;;;9.90;7.40;;;;;;;23.42;45.45;101815.27;112532;1222;62760;-86
2021/10/20 17:02:04;;;;;;;8.70;7.40;;;;;;;23.41;45.58;101806.52;112434;1224;72414;-82
2021/10/20 17:05:10;;;;;;;8.70;7.00;;;;;;;23.41;45.53;101807.21;112113;1225;72384;-87
2021/10/20 17:08:18;;;;;;;;;;;;;;;;;;;;;
2021/10/20 17:11:25;;;;;;;10.30;7.60;;;;;;;23.42;45.60;101803.21;112022;1225;60799;-80
2021/10/20 17:14:23;;;;;;;10.80;7.60;;;;;;;23.41;45.52;101799.29;111832;1227;72349;-81
2021/10/20 17:17:22;;;;;;;;;;;;;;;;;;;;;
2021/10/20 17:20:40;;;;;;;10.90;7.50;;;;;;;23.42;45.70;101796.75;111843;1227;60356;-81
2021/10/20 17:23:23;;;;;;;9.80;7.60;;;;;;;23.42;45.40;101797.99;111470;1230;60178;-81